Time;durP1;ratioP1;P1;durP2;ratioP2;P2;SDS_P1;SDS_P2;PMS_P1;PMS_P2;Temp;Humidity;BMP_temperature;BMP_pressure;BME280_temperature;BME280_humidity;BME280_pressure;Samples;Min_cycle;Max_cycle;Signal;HPM_P1;HPM_P2
2022/01/18 00:00:31;;;;;;;13.03;8.25;;;;;;;14.39;41.79;98399.66;1636609;86;21606;-63
2022/01/18 00:02:58;;;;;;;18.05;10.15;;;;;;;14.15;42.38;98401.88;1639040;86;21036;-67
2022/01/18 00:05:26;;;;;;;15.55;9.35;;;;;;;14.30;42.34;98402.77;1640442;86;21018;-64
2022/01/18 00:07:52;;;;;;;15.50;9.40;;;;;;;14.10;42.54;98399.48;1639098;86;21067;-65
2022/01/18 00:10:22;;;;;;;15.18;8.93;;;;;;;13.98;42.78;98392.83;1637444;86;20951;-65
2022/01/18 00:13:08;;;;;;;15.20;10.00;;;;;;;14.07;42.73;98388.20;1635830;86;21121;-72
2022/01/18 00:20:49;;;;;;;14.73;9.45;;;;;;;14.07;42.90;98385.58;1639985;86;21138;-66
2022/01/18 00:23:08;;;;;;;15.65;9.98;;;;;;;14.19;42.69;98376.22;1636674;86;20995;-64
2022/01/18 00:25:37;;;;;;;15.95;9.65;;;;;;;14.45;42.25;98374.55;1640475;86;21169;-64
2022/01/18 00:28:06;;;;;;;16.37;10.30;;;;;;;14.36;42.18;98374.77;1638596;86;21122;-63
2022/01/18 00:33:26;;;;;;;15.75;10.13;;;;;;;14.29;42.30;98369.74;1638028;86;21108;-63
2022/01/18 00:35:51;;;;;;;18.87;11.85;;;;;;;14.30;42.36;98370.00;1636424;86;21021;-64
2022/01/18 00:38:28;;;;;;;17.20;10.45;;;;;;;14.40;42.18;98371.91;1640498;86;21827;-74
2022/01/18 00:40:45;;;;;;;18.48;10.98;;;;;;;14.55;42.02;98361.53;1637308;86;21700;-65
2022/01/18 00:43:12;;;;;;;14.28;9.90;;;;;;;14.63;41.76;98365.50;1639431;86;21044;-65
2022/01/18 00:45:40;;;;;;;17.73;9.85;;;;;;;14.63;41.70;98364.71;1639842;86;21632;-64
2022/01/18 00:48:08;;;;;;;16.87;10.18;;;;;;;14.61;41.73;98351.84;1636703;86;21167;-64
2022/01/18 00:50:35;;;;;;;17.15;10.75;;;;;;;14.66;41.84;98356.31;1631816;86;21864;-65
2022/01/18 00:53:06;;;;;;;17.85;10.53;;;;;;;14.76;41.74;98355.05;1641585;86;21069;-69
2022/01/18 00:55:36;;;;;;;18.55;10.10;;;;;;;14.60;41.96;98358.92;1637621;86;21136;-74
2022/01/18 00:58:00;;;;;;;16.48;10.68;;;;;;;14.71;41.85;98350.58;1638374;86;21418;-71
2022/01/18 01:00:26;;;;;;;16.60;10.18;;;;;;;14.53;42.10;98356.27;1640344;86;21520;-65
2022/01/18 01:02:53;;;;;;;15.88;10.50;;;;;;;14.07;42.84;98360.69;1636757;86;21191;-67
2022/01/18 01:05:20;;;;;;;17.27;10.13;;;;;;;14.03;42.97;98356.99;1635928;86;20890;-70
2022/01/18 01:07:48;;;;;;;17.95;10.93;;;;;;;14.12;42.97;98344.98;1635115;86;21127;-66
2022/01/18 01:10:15;;;;;;;15.80;10.38;;;;;;;14.13;42.87;98341.88;1654997;85;21127;-66
2022/01/18 01:12:41;;;;;;;18.50;11.35;;;;;;;14.07;43.18;98344.18;1662491;85;21116;-66
2022/01/18 01:15:12;;;;;;;18.92;10.55;;;;;;;14.19;42.87;98344.77;1651829;85;21152;-65
2022/01/18 01:17:55;;;;;;;15.25;10.50;;;;;;;14.56;42.30;98340.81;1663305;86;21138;-72
2022/01/18 01:37:12;;;;;;;15.78;10.38;;;;;;;15.09;41.00;98328.39;1658122;85;21078;-71
2022/01/18 01:42:17;;;;;;;17.00;10.88;;;;;;;15.42;40.38;98321.60;1663501;85;21203;-63
2022/01/18 01:44:45;;;;;;;15.32;10.90;;;;;;;15.31;40.43;98312.42;1662200;85;21021;-65
2022/01/18 01:47:19;;;;;;;16.67;10.13;;;;;;;15.40;40.35;98310.59;1658688;85;21037;-65
2022/01/18 01:49:47;;;;;;;15.75;10.03;;;;;;;15.12;40.69;98303.48;1659384;85;21563;-65
2022/01/18 01:52:13;;;;;;;15.32;10.13;;;;;;;15.16;40.53;98312.41;1662402;85;20962;-63
2022/01/18 01:54:41;;;;;;;17.25;10.70;;;;;;;15.43;40.22;98304.82;1658831;85;22110;-63
2022/01/18 01:57:08;;;;;;;14.45;9.75;;;;;;;15.44;40.08;98301.14;1663563;85;21031;-65
2022/01/18 01:59:37;;;;;;;16.07;9.85;;;;;;;15.08;40.55;98297.17;1663234;85;21075;-63
2022/01/18 02:02:04;;;;;;;14.45;10.20;;;;;;;15.26;40.28;98297.96;1656968;85;21031;-73
2022/01/18 02:04:31;;;;;;;14.38;10.35;;;;;;;15.26;40.32;98292.72;1658605;86;21940;-65
2022/01/18 02:06:57;;;;;;;14.95;10.03;;;;;;;14.72;40.89;98298.39;1662340;85;21173;-64
2022/01/18 02:09:24;;;;;;;17.45;11.15;;;;;;;14.93;40.81;98291.38;1658392;85;21081;-65
2022/01/18 02:11:55;;;;;;;15.35;10.18;;;;;;;14.93;40.83;98297.15;1663080;84;20912;-65
2022/01/18 02:14:28;;;;;;;15.53;11.03;;;;;;;14.79;40.87;98314.67;1656342;85;21614;-66
2022/01/18 02:22:27;;;;;;;14.65;10.15;;;;;;;15.27;40.29;98305.34;1657691;86;21057;-63
2022/01/18 02:24:53;;;;;;;13.43;9.95;;;;;;;15.27;40.19;98304.81;1662444;85;21574;-64
2022/01/18 02:27:20;;;;;;;15.48;9.93;;;;;;;14.71;40.77;98308.62;1663176;85;21039;-65
2022/01/18 02:29:47;;;;;;;15.78;10.58;;;;;;;14.44;41.15;98308.75;1660766;85;21024;-65
2022/01/18 02:32:13;;;;;;;12.82;9.45;;;;;;;13.49;42.84;98315.74;1662231;85;21773;-63
2022/01/18 02:34:43;;;;;;;14.40;9.55;;;;;;;13.60;43.30;98312.17;1663649;85;21449;-64
2022/01/18 02:37:14;;;;;;;14.13;9.20;;;;;;;13.17;43.67;98304.69;1657193;85;20981;-63
2022/01/18 02:39:39;;;;;;;14.73;9.95;;;;;;;13.14;43.98;98313.02;1656722;86;20986;-72
2022/01/18 02:42:07;;;;;;;15.20;9.68;;;;;;;13.07;44.24;98305.91;1656948;85;22331;-63
2022/01/18 02:44:36;;;;;;;14.60;10.30;;;;;;;13.29;44.02;98317.64;1653898;86;21152;-65
2022/01/18 02:47:04;;;;;;;13.90;10.50;;;;;;;12.14;45.79;98318.39;1652194;86;21014;-63
2022/01/18 02:49:33;;;;;;;15.55;10.75;;;;;;;11.95;46.59;98307.16;1663597;84;21556;-73
2022/01/18 02:52:00;;;;;;;16.20;12.00;;;;;;;11.80;47.05;98316.83;1657853;86;21069;-64
2022/01/18 02:54:27;;;;;;;16.37;11.48;;;;;;;11.66;47.41;98314.52;1656627;86;21396;-64
2022/01/18 02:56:59;;;;;;;15.38;11.05;;;;;;;11.55;47.83;98322.42;1654853;86;21162;-64
2022/01/18 02:59:46;;;;;;;13.30;9.30;;;;;;;11.48;48.17;98312.66;1661122;85;20966;-72
2022/01/18 03:04:53;;;;;;;12.90;9.40;;;;;;;11.68;48.23;98315.61;1640855;86;20994;-65
2022/01/18 03:07:20;;;;;;;12.73;9.23;;;;;;;11.41;48.85;98316.23;1650799;86;20977;-66
2022/01/18 03:09:48;;;;;;;12.93;9.25;;;;;;;11.67;48.65;98315.34;1654134;85;21152;-66
2022/01/18 03:12:15;;;;;;;12.82;9.15;;;;;;;11.64;48.45;98317.11;1631286;86;21053;-64
2022/01/18 03:14:42;;;;;;;14.78;8.88;;;;;;;11.80;48.38;98313.70;1632326;86;21071;-64
2022/01/18 03:17:09;;;;;;;12.60;8.90;;;;;;;11.85;48.12;98319.02;1628485;86;21058;-74
2022/01/18 03:19:35;;;;;;;13.83;9.43;;;;;;;11.72;48.31;98314.10;1633001;86;21463;-64
2022/01/18 03:22:04;;;;;;;12.88;9.53;;;;;;;11.57;48.78;98311.25;1638697;86;21248;-65
2022/01/18 03:25:00;;;;;;;12.93;9.80;;;;;;;11.50;49.30;98318.44;1634589;87;21081;-64
2022/01/18 03:29:47;;;;;;;11.33;8.83;;;;;;;11.80;48.78;98304.56;1638755;86;21046;-65
2022/01/18 03:32:13;;;;;;;12.78;8.83;;;;;;;12.03;48.35;98316.67;1623393;87;21045;-67
2022/01/18 03:34:40;;;;;;;12.18;8.13;;;;;;;11.92;48.50;98326.69;1632518;86;21181;-75
2022/01/18 03:37:06;;;;;;;12.53;8.78;;;;;;;12.01;48.18;98320.55;1630091;86;21004;-65
2022/01/18 03:39:34;;;;;;;13.93;10.18;;;;;;;12.08;48.06;98318.56;1630804;86;21413;-65
2022/01/18 03:44:49;;;;;;;12.03;9.25;;;;;;;12.22;47.97;98323.73;1631587;86;21025;-69
2022/01/18 03:47:17;;;;;;;13.93;9.80;;;;;;;12.32;47.85;98319.95;1630492;86;21517;-64
2022/01/18 03:49:45;;;;;;;12.85;9.33;;;;;;;12.18;48.00;98319.50;1632531;86;21028;-67
2022/01/18 03:52:14;;;;;;;12.90;8.70;;;;;;;11.62;48.87;98325.67;1631065;86;21054;-65
2022/01/18 03:54:47;;;;;;;11.83;8.13;;;;;;;12.01;48.69;98325.77;1628150;86;20994;-76
2022/01/18 03:57:10;;;;;;;12.75;9.53;;;;;;;12.24;48.23;98319.59;1629687;86;21143;-65
2022/01/18 03:59:36;;;;;;;10.90;8.65;;;;;;;12.20;48.24;98324.50;1631039;86;21135;-65
2022/01/18 04:02:04;;;;;;;12.78;9.18;;;;;;;12.25;48.38;98329.78;1699004;81;20961;-67
2022/01/18 04:04:30;;;;;;;12.15;8.95;;;;;;;12.51;47.86;98331.42;1712145;82;21143;-75
2022/01/18 04:06:57;;;;;;;11.83;8.80;;;;;;;12.52;47.61;98318.63;1710740;82;20969;-74
2022/01/18 04:09:26;;;;;;;11.75;8.45;;;;;;;12.13;48.29;98323.87;1723448;81;21017;-65
2022/01/18 04:11:53;;;;;;;10.85;8.35;;;;;;;12.38;48.04;98324.71;1714012;83;21631;-66
2022/01/18 04:14:24;;;;;;;12.18;9.03;;;;;;;12.30;48.26;98322.00;1721307;81;21079;-74
2022/01/18 04:27:39;;;;;;;11.60;8.65;;;;;;;12.33;48.52;98320.22;1722104;81;21553;-65
2022/01/18 04:30:04;;;;;;;12.28;9.08;;;;;;;12.50;48.33;98330.64;1720279;81;21036;-65
2022/01/18 04:32:32;;;;;;;12.10;8.75;;;;;;;12.76;47.51;98323.87;1720848;81;21907;-67
2022/01/18 04:34:59;;;;;;;11.43;8.10;;;;;;;12.76;47.44;98327.79;1720834;81;22074;-66
2022/01/18 04:37:25;;;;;;;12.90;8.85;;;;;;;12.52;48.16;98331.69;1722407;81;21167;-65
2022/01/18 04:39:52;;;;;;;10.78;8.13;;;;;;;12.65;47.81;98329.52;1721471;81;21568;-75
2022/01/18 04:42:45;;;;;;;13.45;9.50;;;;;;;12.60;47.86;98332.05;1719391;81;21130;-64
2022/01/18 04:50:34;;;;;;;12.05;8.83;;;;;;;12.56;48.12;98336.70;1720491;81;21181;-63
2022/01/18 04:53:02;;;;;;;12.25;8.90;;;;;;;12.49;48.11;98332.17;1721544;81;20980;-75
2022/01/18 04:55:32;;;;;;;11.22;8.45;;;;;;;12.38;48.25;98325.50;1720468;81;21020;-75
2022/01/18 04:57:57;;;;;;;13.83;10.00;;;;;;;12.41;48.31;98332.86;1720985;81;20967;-64
2022/01/18 05:00:25;;;;;;;11.97;8.55;;;;;;;12.47;48.12;98335.56;1723466;81;20964;-65
2022/01/18 05:02:52;;;;;;;11.43;9.28;;;;;;;12.26;48.43;98324.82;1722418;81;21918;-66
2022/01/18 05:05:28;;;;;;;10.90;8.48;;;;;;;12.02;48.95;98329.46;1719482;81;21545;-72
2022/01/18 05:07:53;;;;;;;13.88;9.40;;;;;;;12.16;48.99;98342.98;1720597;81;20952;-64
2022/01/18 05:10:22;;;;;;;12.70;9.03;;;;;;;12.47;48.45;98342.09;1720480;81;20992;-67
2022/01/18 05:12:52;;;;;;;14.13;9.43;;;;;;;12.61;48.13;98340.67;1722532;81;21012;-66
2022/01/18 05:15:44;;;;;;;12.58;9.05;;;;;;;12.65;47.84;98345.69;1723736;81;21254;-65
2022/01/18 05:23:21;;;;;;;13.53;9.38;;;;;;;12.50;48.02;98350.73;1723411;81;21629;-72
2022/01/18 05:25:48;;;;;;;15.20;10.10;;;;;;;12.55;48.24;98358.66;1723460;81;21095;-64
2022/01/18 05:28:20;;;;;;;15.03;10.60;;;;;;;12.82;47.70;98363.43;1719389;81;21159;-74
2022/01/18 05:30:47;;;;;;;17.48;11.25;;;;;;;13.20;47.06;98354.42;1726563;81;21194;-64
2022/01/18 05:33:15;;;;;;;17.37;11.50;;;;;;;12.90;47.25;98360.38;1723214;81;21007;-63
2022/01/18 05:35:42;;;;;;;15.15;9.70;;;;;;;12.96;47.25;98367.00;1727464;81;20959;-64
2022/01/18 05:38:11;;;;;;;15.45;10.28;;;;;;;12.84;47.36;98374.45;1717214;81;21511;-68
2022/01/18 05:40:39;;;;;;;19.40;11.38;;;;;;;13.07;47.22;98372.61;1689089;80;21398;-64
2022/01/18 05:43:08;;;;;;;15.93;10.98;;;;;;;13.31;46.67;98363.47;1725111;81;21078;-65
2022/01/18 05:45:34;;;;;;;17.10;10.15;;;;;;;13.09;46.83;98370.53;1726011;81;21019;-73
2022/01/18 05:48:01;;;;;;;11.75;8.68;;;;;;;13.09;46.91;98378.37;1719780;81;20994;-71
2022/01/18 05:50:28;;;;;;;13.90;9.80;;;;;;;12.90;47.18;98385.22;1726629;81;20953;-63
2022/01/18 05:52:54;;;;;;;11.38;8.45;;;;;;;13.20;46.84;98392.36;1719930;81;21104;-67
2022/01/18 05:55:21;;;;;;;11.85;8.48;;;;;;;13.40;46.37;98393.90;1722112;81;21091;-62
2022/01/18 05:57:47;;;;;;;11.08;7.67;;;;;;;13.18;46.64;98395.20;1721553;81;21008;-71
2022/01/18 06:00:21;;;;;;;12.03;8.10;;;;;;;13.02;47.02;98394.77;1719944;81;21134;-66
2022/01/18 06:08:04;;;;;;;9.73;6.75;;;;;;;13.34;46.49;98400.92;1628233;86;22585;-62
2022/01/18 06:10:33;;;;;;;11.57;7.95;;;;;;;12.99;47.04;98407.02;1631975;86;21619;-64
2022/01/18 06:13:02;;;;;;;10.85;7.55;;;;;;;13.15;46.86;98417.43;1665126;81;21051;-64
2022/01/18 06:15:34;;;;;;;9.35;6.33;;;;;;;13.14;46.65;98422.89;1727186;81;20932;-73
2022/01/18 06:18:09;;;;;;;9.65;6.95;;;;;;;13.29;46.50;98423.09;1732462;81;21040;-70
2022/01/18 06:20:40;;;;;;;8.03;5.05;;;;;;;13.27;46.32;98433.55;1729367;81;21024;-65
2022/01/18 06:23:06;;;;;;;6.65;4.35;;;;;;;13.10;46.45;98442.20;1725451;81;21288;-64
2022/01/18 06:25:37;;;;;;;5.87;2.60;;;;;;;13.01;46.58;98442.89;1731839;81;21575;-73
2022/01/18 06:28:04;;;;;;;4.58;2.70;;;;;;;15.54;42.25;98439.80;1729226;81;21129;-66
2022/01/18 06:30:31;;;;;;;4.42;2.35;;;;;;;15.00;42.55;98438.84;1737661;81;21214;-62
2022/01/18 06:32:58;;;;;;;4.72;1.80;;;;;;;14.84;42.58;98444.52;1727460;80;21411;-64
2022/01/18 06:35:26;;;;;;;3.10;1.80;;;;;;;15.01;41.89;98444.88;1728364;81;21040;-72
2022/01/18 06:37:53;;;;;;;4.22;1.77;;;;;;;14.76;41.91;98446.32;1696080;82;21587;-75
2022/01/18 06:40:19;;;;;;;2.50;1.32;;;;;;;14.25;42.63;98455.16;1731276;81;21118;-64
2022/01/18 06:42:49;;;;;;;2.65;1.35;;;;;;;14.51;42.23;98454.06;1731612;81;21168;-65
2022/01/18 06:45:15;;;;;;;3.08;1.37;;;;;;;14.69;41.82;98451.52;1728532;81;20925;-67
2022/01/18 06:47:42;;;;;;;4.05;1.90;;;;;;;14.73;41.30;98456.00;1729906;81;20980;-65
2022/01/18 06:50:13;;;;;;;3.35;1.50;;;;;;;14.54;41.65;98464.02;1726358;81;21596;-64
2022/01/18 06:52:39;;;;;;;2.55;1.30;;;;;;;14.28;41.93;98467.77;1730627;81;21036;-63
2022/01/18 06:55:09;;;;;;;4.08;1.47;;;;;;;14.46;41.80;98460.53;1726017;81;21092;-72
2022/01/18 06:57:36;;;;;;;2.83;1.42;;;;;;;13.76;42.42;98464.42;1728692;81;21105;-64
2022/01/18 07:00:04;;;;;;;2.87;1.10;;;;;;;13.75;42.41;98473.33;1731599;81;21098;-71
2022/01/18 07:02:31;;;;;;;3.92;1.35;;;;;;;14.11;42.01;98473.64;1716210;81;21091;-64
2022/01/18 07:05:00;;;;;;;2.58;0.98;;;;;;;14.22;41.85;98467.44;1706932;82;21083;-62
2022/01/18 07:07:30;;;;;;;3.65;1.40;;;;;;;14.09;41.98;98483.56;1702688;82;21108;-62
2022/01/18 07:09:58;;;;;;;3.17;1.32;;;;;;;13.95;42.13;98482.41;1687919;83;21073;-72
2022/01/18 07:12:25;;;;;;;5.15;1.52;;;;;;;13.46;42.82;98483.22;1687178;82;21116;-64
2022/01/18 07:14:52;;;;;;;3.15;1.40;;;;;;;12.73;43.67;98493.00;1699120;83;21013;-74
2022/01/18 07:17:20;;;;;;;8.05;1.70;;;;;;;12.75;44.49;98505.82;1712066;81;21574;-64
2022/01/18 07:19:47;;;;;;;2.72;1.30;;;;;;;12.08;45.71;98504.77;1676667;84;21117;-62
2022/01/18 07:22:17;;;;;;;3.12;1.25;;;;;;;11.95;46.25;98501.68;1686484;83;21037;-70
2022/01/18 07:24:47;;;;;;;3.50;1.40;;;;;;;11.79;46.70;98524.09;1700876;82;21024;-65
2022/01/18 07:27:15;;;;;;;3.08;1.30;;;;;;;11.89;46.66;98531.63;1701664;82;21031;-64
2022/01/18 07:29:43;;;;;;;2.95;1.40;;;;;;;11.87;46.95;98525.83;1671660;84;21404;-64
2022/01/18 07:32:10;;;;;;;3.67;1.75;;;;;;;11.54;47.67;98532.21;1700653;83;21865;-64
2022/01/18 07:34:41;;;;;;;3.80;1.57;;;;;;;11.57;48.12;98535.67;1700957;84;21487;-63
2022/01/18 07:37:06;;;;;;;2.98;1.50;;;;;;;11.90;47.53;98536.33;1700050;82;21117;-66
2022/01/18 07:39:36;;;;;;;3.98;1.42;;;;;;;11.84;47.27;98534.12;1699341;84;21533;-63
2022/01/18 07:42:04;;;;;;;4.37;1.40;;;;;;;11.68;48.07;98536.94;1702669;82;21057;-62
2022/01/18 07:44:36;;;;;;;2.65;1.30;;;;;;;11.60;48.49;98554.78;1704315;82;21120;-72
2022/01/18 07:47:05;;;;;;;4.17;1.40;;;;;;;12.83;46.34;98540.19;1703751;82;21082;-64
2022/01/18 07:49:32;;;;;;;3.42;1.50;;;;;;;12.93;45.68;98534.84;1700108;82;21049;-63
2022/01/18 07:51:59;;;;;;;3.60;1.52;;;;;;;12.81;45.74;98550.11;1703477;82;20959;-62
2022/01/18 07:54:26;;;;;;;3.27;1.37;;;;;;;13.26;45.16;98554.92;1708040;82;21072;-69
2022/01/18 07:56:56;;;;;;;4.65;1.62;;;;;;;13.36;44.51;98551.92;1700700;82;21159;-63
2022/01/18 07:59:22;;;;;;;3.58;1.40;;;;;;;13.09;44.92;98552.33;1710705;82;20972;-62
2022/01/18 08:01:52;;;;;;;3.85;1.65;;;;;;;13.00;45.17;98561.63;1710498;81;20878;-61
2022/01/18 08:04:24;;;;;;;3.15;1.47;;;;;;;13.30;44.72;98563.38;1725743;81;23653;-62
2022/01/18 08:06:51;;;;;;;2.92;1.70;;;;;;;13.16;44.90;98555.56;1726264;81;21049;-65
2022/01/18 08:09:19;;;;;;;3.50;1.57;;;;;;;13.07;45.03;98557.03;1725000;81;21144;-62
2022/01/18 08:11:48;;;;;;;3.62;1.70;;;;;;;13.29;44.64;98566.22;1726438;81;21063;-62
2022/01/18 08:14:17;;;;;;;3.77;1.60;;;;;;;13.47;44.35;98567.25;1701599;82;21022;-67
2022/01/18 08:16:48;;;;;;;3.37;1.92;;;;;;;13.68;43.88;98561.75;1726977;81;21079;-64
2022/01/18 08:19:15;;;;;;;;;;;;;;;13.50;44.18;98579.06;1767161;79;20991;-60
2022/01/18 08:21:41;;;;;;;2.85;1.17;;;;;;;13.54;44.30;98586.70;1757902;79;21791;-63
2022/01/18 08:24:09;;;;;;;4.17;1.60;;;;;;;13.66;44.15;98580.05;1762148;79;21510;-65
2022/01/18 08:26:36;;;;;;;2.80;1.62;;;;;;;13.55;44.08;98582.52;1761069;79;21058;-67
2022/01/18 08:29:03;;;;;;;4.08;1.50;;;;;;;13.43;44.38;98592.84;1765832;79;21071;-63
2022/01/18 08:31:30;;;;;;;3.52;1.60;;;;;;;13.24;44.96;98578.73;1762901;79;21081;-62
2022/01/18 08:33:58;;;;;;;3.52;1.50;;;;;;;13.50;44.60;98577.76;1763062;79;21159;-62
2022/01/18 08:36:25;;;;;;;3.98;1.57;;;;;;;13.55;44.08;98589.07;1767279;79;20936;-63
2022/01/18 08:38:53;;;;;;;3.77;1.67;;;;;;;13.43;44.24;98598.08;1761011;79;21377;-69
2022/01/18 08:41:21;;;;;;;3.10;0.90;;;;;;;13.63;43.72;98593.09;1763403;79;21518;-61
2022/01/18 08:43:48;;;;;;;2.62;1.20;;;;;;;14.44;42.87;98591.87;1755902;79;20974;-62
2022/01/18 08:46:16;;;;;;;2.75;1.47;;;;;;;14.75;42.24;98600.81;1760326;79;21167;-62
2022/01/18 08:48:43;;;;;;;3.20;1.27;;;;;;;14.89;41.92;98596.44;1760242;80;21033;-60
2022/01/18 08:51:10;;;;;;;3.17;1.50;;;;;;;14.81;41.96;98599.00;1757736;79;20913;-63
2022/01/18 08:53:38;;;;;;;2.98;1.12;;;;;;;15.04;41.57;98603.12;1758208;79;21716;-64
2022/01/18 08:56:06;;;;;;;2.50;1.07;;;;;;;15.21;41.16;98607.69;1758394;79;21030;-63
2022/01/18 08:58:34;;;;;;;2.67;1.27;;;;;;;15.12;41.23;98607.90;1731368;79;21156;-60
2022/01/18 09:01:05;;;;;;;2.20;1.10;;;;;;;15.27;40.78;98598.02;1760247;79;22374;-68
2022/01/18 09:03:33;;;;;;;2.58;1.32;;;;;;;15.00;40.90;98611.20;1757006;79;21045;-60
2022/01/18 09:06:03;;;;;;;1.85;1.00;;;;;;;15.13;40.74;98615.25;1755986;79;21555;-60
2022/01/18 09:08:28;;;;;;;2.72;1.02;;;;;;;15.09;40.63;98596.06;1758357;79;21096;-61
2022/01/18 09:10:55;;;;;;;2.30;1.00;;;;;;;15.31;40.33;98604.34;1754506;79;22090;-60
2022/01/18 09:13:24;;;;;;;3.62;1.35;;;;;;;15.19;40.26;98617.66;1733297;79;21089;-65
2022/01/18 09:15:52;;;;;;;3.72;1.35;;;;;;;15.13;40.08;98616.03;1762123;79;21077;-61
2022/01/18 09:18:19;;;;;;;4.83;1.47;;;;;;;14.85;40.39;98619.78;1762680;79;21058;-64
2022/01/18 09:20:45;;;;;;;3.67;1.50;;;;;;;15.60;39.45;98627.05;1764207;79;20977;-62
2022/01/18 09:23:17;;;;;;;5.45;1.90;;;;;;;15.74;38.66;98628.20;1761987;79;22411;-63
2022/01/18 09:25:44;;;;;;;3.98;1.47;;;;;;;15.91;38.35;98628.03;1762598;79;22444;-61
2022/01/18 09:28:11;;;;;;;4.47;1.50;;;;;;;15.92;38.05;98623.56;1759932;79;21541;-64
2022/01/18 09:30:38;;;;;;;3.02;1.30;;;;;;;15.98;38.13;98625.14;1758701;79;20998;-61
2022/01/18 09:33:06;;;;;;;3.37;1.40;;;;;;;15.97;38.05;98628.30;1760901;79;21113;-62
2022/01/18 09:35:37;;;;;;;4.22;1.55;;;;;;;15.94;38.04;98620.14;1763987;79;21093;-68
2022/01/18 09:38:06;;;;;;;3.42;1.40;;;;;;;16.13;37.74;98620.45;1759314;79;21069;-62
2022/01/18 09:40:38;;;;;;;3.17;1.47;;;;;;;15.66;37.82;98630.02;1730442;79;21134;-61
2022/01/18 09:43:12;;;;;;;6.77;2.03;;;;;;;15.30;38.32;98627.19;1759807;79;21472;-61
2022/01/18 09:45:39;;;;;;;3.87;2.05;;;;;;;14.64;38.81;98627.98;1763694;79;21038;-67
2022/01/18 09:48:10;;;;;;;5.40;1.87;;;;;;;14.39;39.95;98633.75;1761904;79;21225;-65
2022/01/18 09:50:38;;;;;;;3.67;1.85;;;;;;;14.06;40.47;98634.73;1760402;79;21077;-61
2022/01/18 09:53:07;;;;;;;4.85;1.87;;;;;;;14.43;40.15;98632.73;1759046;79;21083;-62
2022/01/18 09:55:36;;;;;;;4.05;2.02;;;;;;;14.54;39.86;98643.09;1761735;79;20981;-65
2022/01/18 09:58:06;;;;;;;4.12;1.90;;;;;;;14.91;39.61;98643.69;1760091;80;21046;-62
2022/01/18 10:00:33;;;;;;;4.87;1.70;;;;;;;15.06;39.36;98645.11;1756572;79;22901;-65
2022/01/18 10:03:05;;;;;;;4.72;1.98;;;;;;;15.06;39.48;98646.95;1751813;79;21058;-61
2022/01/18 10:05:34;;;;;;;4.20;1.80;;;;;;;15.14;39.18;98654.35;1755001;80;21069;-64
2022/01/18 10:08:10;;;;;;;3.72;1.75;;;;;;;15.18;39.19;98653.33;1755151;80;21362;-72
2022/01/18 10:10:45;;;;;;;4.80;1.60;;;;;;;15.42;38.99;98650.61;1754632;80;21484;-64
2022/01/18 10:13:23;;;;;;;3.33;1.60;;;;;;;15.49;38.60;98652.99;1755108;80;21146;-62
2022/01/18 10:16:12;;;;;;;4.35;1.92;;;;;;;15.72;38.76;98655.28;1751707;80;21271;-63
2022/01/18 10:18:50;;;;;;;4.45;1.52;;;;;;;16.02;38.58;98653.80;1752648;80;20956;-64
2022/01/18 10:21:31;;;;;;;5.50;2.00;;;;;;;16.11;38.73;98652.27;1753193;80;21108;-64
2022/01/18 10:24:20;;;;;;;3.92;1.67;;;;;;;16.24;38.64;98666.76;1749739;80;21622;-63
2022/01/18 10:26:48;;;;;;;5.00;1.62;;;;;;;16.45;37.60;98672.34;1750446;80;21179;-63
2022/01/18 10:29:16;;;;;;;3.30;1.50;;;;;;;16.47;36.85;98654.97;1755271;80;22414;-69
2022/01/18 10:34:26;;;;;;;4.65;1.82;;;;;;;16.35;36.34;98671.00;1753615;80;21547;-70
2022/01/18 10:36:54;;;;;;;4.97;1.67;;;;;;;16.24;36.89;98663.59;1752842;80;21078;-65
2022/01/18 10:39:24;;;;;;;4.20;1.65;;;;;;;16.29;37.15;98666.79;1752742;81;21133;-65
2022/01/18 10:41:52;;;;;;;4.33;1.98;;;;;;;15.92;37.02;98680.06;1752769;80;21544;-65
2022/01/18 10:44:23;;;;;;;4.03;1.20;;;;;;;15.63;37.41;98675.67;1751154;81;21035;-68
2022/01/18 10:46:54;;;;;;;4.58;1.67;;;;;;;15.93;37.99;98669.80;1755078;80;21112;-65
2022/01/18 10:49:39;;;;;;;3.40;1.30;;;;;;;16.08;37.15;98673.02;1757270;80;21078;-64
2022/01/18 10:52:13;;;;;;;4.10;1.70;;;;;;;15.77;36.74;98692.59;1753027;80;21116;-77
2022/01/18 10:54:54;;;;;;;5.55;1.70;;;;;;;15.75;36.45;98682.33;1749118;81;21113;-66
2022/01/18 10:57:26;;;;;;;7.58;2.98;;;;;;;15.27;36.78;98683.34;1752035;81;21062;-74
2022/01/18 11:00:08;;;;;;;4.55;1.87;;;;;;;15.01;36.99;98703.34;1750921;81;21094;-66
2022/01/18 11:02:42;;;;;;;5.17;2.02;;;;;;;14.96;37.40;98694.88;1748850;80;21472;-69
2022/01/18 11:05:23;;;;;;;5.50;2.10;;;;;;;14.74;37.88;98693.66;1757028;79;21149;-66
2022/01/18 11:07:53;;;;;;;7.03;2.95;;;;;;;14.74;38.12;98709.39;1754805;79;21803;-63
2022/01/18 11:10:22;;;;;;;5.85;2.83;;;;;;;14.72;38.35;98702.28;1762010;79;21057;-66
2022/01/18 11:13:04;;;;;;;11.20;5.53;;;;;;;14.81;38.08;98696.05;1761479;79;21315;-66
2022/01/18 11:15:28;;;;;;;11.70;4.70;;;;;;;14.96;38.04;98704.59;1762547;79;20980;-66
2022/01/18 11:18:07;;;;;;;19.35;8.83;;;;;;;15.04;38.40;98706.78;1764594;79;21161;-64
2022/01/18 11:20:31;;;;;;;8.45;3.92;;;;;;;15.01;38.41;98700.19;1759839;79;21050;-77
2022/01/18 11:23:00;;;;;;;6.00;2.72;;;;;;;14.72;38.22;98702.28;1765131;79;21076;-71
2022/01/18 11:25:28;;;;;;;4.65;2.47;;;;;;;13.85;39.33;98718.30;1762289;79;21065;-66
2022/01/18 11:27:57;;;;;;;6.87;2.98;;;;;;;13.62;39.24;98716.67;1761041;79;21541;-70
2022/01/18 11:30:31;;;;;;;4.72;2.58;;;;;;;13.56;39.19;98715.03;1762067;79;21149;-72
2022/01/18 11:32:59;;;;;;;7.25;3.92;;;;;;;13.22;39.58;98731.23;1764586;79;21023;-66
2022/01/18 11:35:47;;;;;;;6.00;3.55;;;;;;;13.01;39.86;98739.76;1761510;79;21001;-68
2022/01/18 11:38:45;;;;;;;5.95;2.98;;;;;;;12.87;40.25;98732.20;1764322;79;21513;-72
2022/01/18 11:41:27;;;;;;;5.80;3.05;;;;;;;12.89;40.31;98734.08;1763352;79;21017;-66
2022/01/18 11:43:55;;;;;;;5.03;2.90;;;;;;;12.77;40.71;98747.72;1762895;79;21765;-66
2022/01/18 11:46:34;;;;;;;5.15;2.83;;;;;;;12.54;41.59;98748.61;1761104;79;21105;-75
2022/01/18 11:49:18;;;;;;;5.33;2.08;;;;;;;12.74;41.33;98749.48;1756634;79;21029;-79
2022/01/18 11:52:01;;;;;;;4.03;1.85;;;;;;;12.20;42.54;98763.34;1767699;79;21397;-68
2022/01/18 11:54:55;;;;;;;2.58;1.30;;;;;;;12.38;42.51;98777.55;1760610;79;21065;-67
2022/01/18 11:57:27;;;;;;;2.72;1.10;;;;;;;12.33;42.94;98770.92;1760763;80;21354;-66
2022/01/18 12:00:20;;;;;;;4.28;2.22;;;;;;;12.05;43.44;98776.09;1759345;79;20967;-67
2022/01/18 12:02:52;;;;;;;6.37;3.83;;;;;;;12.33;43.50;98788.42;1762710;79;20906;-67
2022/01/18 12:05:21;;;;;;;7.00;4.50;;;;;;;12.21;43.97;98781.12;1724844;80;21066;-76
2022/01/18 12:07:58;;;;;;;8.03;4.40;;;;;;;12.05;44.19;98782.61;1746831;80;21195;-77
2022/01/18 12:10:42;;;;;;;7.05;4.30;;;;;;;11.66;45.24;98788.23;1750205;80;21075;-63
2022/01/18 12:13:33;;;;;;;7.65;4.53;;;;;;;11.82;45.21;98788.09;1749964;80;20951;-78
2022/01/18 12:16:03;;;;;;;6.72;3.70;;;;;;;11.66;45.48;98786.92;1692283;83;21105;-63
2022/01/18 12:18:34;;;;;;;6.62;2.95;;;;;;;11.52;45.45;98793.40;1695802;83;20963;-75
2022/01/18 12:21:06;;;;;;;8.03;4.62;;;;;;;10.90;46.64;98806.70;1716732;80;20960;-69
2022/01/18 12:23:42;;;;;;;10.05;6.90;;;;;;;10.87;46.70;98801.12;1751702;80;21116;-64
2022/01/18 12:26:34;;;;;;;8.65;5.58;;;;;;;11.99;45.96;98810.94;1755358;80;21045;-64
2022/01/18 12:29:34;;;;;;;8.40;4.90;;;;;;;10.38;47.81;98820.66;1753168;80;21038;-65
2022/01/18 12:32:06;;;;;;;9.73;5.60;;;;;;;10.24;49.43;98813.95;1750146;80;21053;-80
2022/01/18 12:34:32;;;;;;;9.93;5.62;;;;;;;10.19;49.73;98824.20;1742638;81;21096;-66
2022/01/18 12:37:27;;;;;;;23.22;14.63;;;;;;;10.17;49.95;98830.14;1752371;80;21925;-67
2022/01/18 12:45:22;;;;;;;35.20;27.17;;;;;;;10.32;49.97;98841.55;1753053;80;20931;-78
2022/01/18 12:48:02;;;;;;;26.42;18.67;;;;;;;10.65;49.41;98832.88;1749704;80;21113;-65
2022/01/18 12:50:35;;;;;;;22.42;13.15;;;;;;;10.61;49.32;98834.33;1751968;80;21794;-64
2022/01/18 12:53:08;;;;;;;19.52;11.18;;;;;;;10.92;49.17;98843.78;1747861;81;20939;-68
2022/01/18 12:55:57;;;;;;;22.35;14.28;;;;;;;10.56;49.76;98841.19;1750860;81;20943;-65
2022/01/18 12:58:38;;;;;;;21.90;13.58;;;;;;;10.69;49.69;98834.03;1749525;80;21977;-79